Pagrindinis puslapis
METAR-TAF:

METAR-TAF

Oro uostai :

Notodden, Norvegija

platuma: 59-34N, ilguma: 009-13E, Aukštis: 19 m

Dabartinis oras

Ataskaita buvo paskelbta 2 valandos ir 48 minutes, ne 16:50 UTC
Vėjas 6 kt iš Rytų/Pietryčių
Temperatūra 17°C
Drėgmė 77%
Slėgis 996 hPa
Matomumas 10 km arba daugiau
Mažai debesys ne aukštis 2000 ft
Su prošvaistėmis ne aukštis 5000 ft
Liūtis kaimynystėje

METAR: ENNO 231650Z 11006KT 9999 VCSH FEW020 BKN050 17/13 Q0996

Laikas: 21:38 (19:38 UTC)

Prognozė

Ataskaita buvo paskelbta 8 valandos ir 38 minutes, ne 11:00 UTC
Prognozė galioja nuo 23 metu 12 UTC su 23 metu 17 UTC
Vėjas 8 kt iš Rytų/Pietryčių
Matomumas: 8000 m
Mažai debesys ne aukštis 500 ft
Su prošvaistėmis ne aukštis 2500 ft
lietus
Laikinai
nuo 23 metu 12 UTC su 23 metu 17 UTC
Matomumas: 4000 m
Su prošvaistėmis ne aukštis 800 ft
Išsisklaidę debesys ne aukštis 1500 ft, Liūtiniai kamuoliniai debesys.
lietus, rūkana

TAF: ENNO 231100Z 2312/2317 12008KT 8000 -RA FEW005 BKN025 TEMPO 2312/2317 4000 SHRA BR BKN008 SCT015CB

Orai ataskaitas ir orų prognozės (METAR, TAF).

turimą stotys yra geltonos ir raudonos taškus žemėlapyje.

Perkelti pele per norėdami pamatyti stoties vardą.

Tada spustelėkite, norėdami matyti oro stebėjimo ir prognozės.

Norėdami pakeisti žemėlapį: spustelėkite ant žalios mygtukų su juodo kryžiaus žemyn,; žalią mygtuką su brūkšneliu, jei norite nutolinti; arba žalių rodyklių gretimoms žemėlapius.


METAR-TAF: